sensor_id;sensor_type;location;lat;lon;timestamp;P1;durP1;ratioP1;P2;durP2;ratioP2
48578;SDS011;34357;51.948;6.132;2024-03-23T00:56:13;39.85;;;9.00;;
48578;SDS011;34357;51.948;6.132;2024-03-23T00:58:38;28.38;;;8.00;;
48578;SDS011;34357;51.948;6.132;2024-03-23T01:01:04;32.20;;;8.40;;
48578;SDS011;34357;51.948;6.132;2024-03-23T01:03:30;32.92;;;9.27;;
48578;SDS011;34357;51.948;6.132;2024-03-23T01:05:59;25.75;;;8.68;;
48578;SDS011;34357;51.948;6.132;2024-03-23T01:08:25;27.98;;;8.25;;
48578;SDS011;34357;51.948;6.132;2024-03-23T01:10:54;30.70;;;8.93;;
48578;SDS011;34357;51.948;6.132;2024-03-23T01:13:24;25.27;;;7.47;;
48578;SDS011;34357;51.948;6.132;2024-03-23T01:15:51;30.88;;;8.38;;
48578;SDS011;34357;51.948;6.132;2024-03-23T01:18:17;24.67;;;8.25;;
48578;SDS011;34357;51.948;6.132;2024-03-23T01:20:44;27.30;;;8.15;;
48578;SDS011;34357;51.948;6.132;2024-03-23T01:23:10;34.40;;;9.20;;
48578;SDS011;34357;51.948;6.132;2024-03-23T01:25:36;29.65;;;7.93;;
48578;SDS011;34357;51.948;6.132;2024-03-23T01:28:02;29.83;;;7.97;;
48578;SDS011;34357;51.948;6.132;2024-03-23T01:30:28;29.77;;;7.40;;
48578;SDS011;34357;51.948;6.132;2024-03-23T01:32:54;28.05;;;7.20;;
48578;SDS011;34357;51.948;6.132;2024-03-23T01:35:19;25.77;;;6.85;;
48578;SDS011;34357;51.948;6.132;2024-03-23T01:37:45;27.08;;;7.25;;
48578;SDS011;34357;51.948;6.132;2024-03-23T01:40:11;23.15;;;6.70;;
48578;SDS011;34357;51.948;6.132;2024-03-23T01:42:38;29.63;;;7.38;;
48578;SDS011;34357;51.948;6.132;2024-03-23T01:45:08;24.08;;;6.82;;
48578;SDS011;34357;51.948;6.132;2024-03-23T01:47:35;25.77;;;6.90;;
48578;SDS011;34357;51.948;6.132;2024-03-23T01:50:01;26.25;;;6.93;;
48578;SDS011;34357;51.948;6.132;2024-03-23T01:52:26;24.35;;;6.40;;
48578;SDS011;34357;51.948;6.132;2024-03-23T01:54:52;23.17;;;7.80;;
48578;SDS011;34357;51.948;6.132;2024-03-23T01:57:19;22.58;;;6.80;;
48578;SDS011;34357;51.948;6.132;2024-03-23T01:59:48;29.10;;;7.22;;
48578;SDS011;34357;51.948;6.132;2024-03-23T02:02:22;21.20;;;6.60;;
48578;SDS011;34357;51.948;6.132;2024-03-23T02:04:47;25.75;;;6.85;;
48578;SDS011;34357;51.948;6.132;2024-03-23T02:07:13;21.13;;;7.05;;
48578;SDS011;34357;51.948;6.132;2024-03-23T02:09:39;24.40;;;7.63;;
48578;SDS011;34357;51.948;6.132;2024-03-23T02:12:05;20.75;;;7.20;;
48578;SDS011;34357;51.948;6.132;2024-03-23T02:14:31;32.17;;;8.27;;
48578;SDS011;34357;51.948;6.132;2024-03-23T02:16:57;28.27;;;7.45;;
48578;SDS011;34357;51.948;6.132;2024-03-23T02:19:23;24.15;;;7.93;;
48578;SDS011;34357;51.948;6.132;2024-03-23T02:21:49;29.17;;;7.80;;
48578;SDS011;34357;51.948;6.132;2024-03-23T02:24:15;25.40;;;7.80;;
48578;SDS011;34357;51.948;6.132;2024-03-23T02:26:40;30.00;;;7.65;;
48578;SDS011;34357;51.948;6.132;2024-03-23T02:29:06;22.35;;;7.90;;
48578;SDS011;34357;51.948;6.132;2024-03-23T02:31:32;21.42;;;6.75;;
48578;SDS011;34357;51.948;6.132;2024-03-23T02:33:57;23.92;;;7.65;;
48578;SDS011;34357;51.948;6.132;2024-03-23T02:36:23;20.88;;;7.40;;
48578;SDS011;34357;51.948;6.132;2024-03-23T02:38:49;19.30;;;7.85;;
48578;SDS011;34357;51.948;6.132;2024-03-23T02:41:14;30.92;;;9.13;;
48578;SDS011;34357;51.948;6.132;2024-03-23T02:43:40;23.85;;;8.10;;
48578;SDS011;34357;51.948;6.132;2024-03-23T02:46:06;28.08;;;8.82;;
48578;SDS011;34357;51.948;6.132;2024-03-23T02:48:32;26.02;;;8.93;;
48578;SDS011;34357;51.948;6.132;2024-03-23T02:50:58;27.00;;;8.98;;
48578;SDS011;34357;51.948;6.132;2024-03-23T02:53:24;26.92;;;9.15;;
48578;SDS011;34357;51.948;6.132;2024-03-23T02:55:49;33.80;;;9.45;;
48578;SDS011;34357;51.948;6.132;2024-03-23T02:58:15;28.25;;;9.35;;
48578;SDS011;34357;51.948;6.132;2024-03-23T03:00:41;29.13;;;9.57;;
48578;SDS011;34357;51.948;6.132;2024-03-23T03:03:06;32.38;;;10.35;;
48578;SDS011;34357;51.948;6.132;2024-03-23T03:05:32;26.85;;;9.45;;
48578;SDS011;34357;51.948;6.132;2024-03-23T03:07:58;25.75;;;10.10;;
48578;SDS011;34357;51.948;6.132;2024-03-23T03:10:23;28.23;;;10.45;;
48578;SDS011;34357;51.948;6.132;2024-03-23T03:12:49;30.60;;;10.30;;
48578;SDS011;34357;51.948;6.132;2024-03-23T03:15:15;31.42;;;11.98;;
48578;SDS011;34357;51.948;6.132;2024-03-23T03:17:40;29.25;;;11.52;;
48578;SDS011;34357;51.948;6.132;2024-03-23T03:20:06;34.63;;;11.20;;
48578;SDS011;34357;51.948;6.132;2024-03-23T03:22:32;26.45;;;11.13;;
48578;SDS011;34357;51.948;6.132;2024-03-23T03:24:58;35.33;;;12.75;;
48578;SDS011;34357;51.948;6.132;2024-03-23T03:27:25;28.65;;;12.93;;
48578;SDS011;34357;51.948;6.132;2024-03-23T03:29:51;37.28;;;12.77;;
48578;SDS011;34357;51.948;6.132;2024-03-23T03:32:16;42.00;;;14.43;;
48578;SDS011;34357;51.948;6.132;2024-03-23T03:34:42;38.08;;;13.95;;
48578;SDS011;34357;51.948;6.132;2024-03-23T03:37:07;38.10;;;13.82;;
48578;SDS011;34357;51.948;6.132;2024-03-23T03:39:33;36.45;;;13.88;;
48578;SDS011;34357;51.948;6.132;2024-03-23T03:41:59;38.05;;;14.70;;
48578;SDS011;34357;51.948;6.132;2024-03-23T03:44:26;40.20;;;16.98;;
48578;SDS011;34357;51.948;6.132;2024-03-23T03:46:52;33.42;;;14.23;;
48578;SDS011;34357;51.948;6.132;2024-03-23T03:49:18;37.65;;;15.65;;
48578;SDS011;34357;51.948;6.132;2024-03-23T03:51:43;37.67;;;15.95;;
48578;SDS011;34357;51.948;6.132;2024-03-23T03:54:09;47.42;;;16.25;;
48578;SDS011;34357;51.948;6.132;2024-03-23T03:56:35;39.22;;;16.05;;
48578;SDS011;34357;51.948;6.132;2024-03-23T03:59:00;45.75;;;17.50;;
48578;SDS011;34357;51.948;6.132;2024-03-23T04:01:26;44.80;;;17.83;;
48578;SDS011;34357;51.948;6.132;2024-03-23T04:03:51;43.33;;;18.17;;
48578;SDS011;34357;51.948;6.132;2024-03-23T04:06:20;48.47;;;18.38;;
48578;SDS011;34357;51.948;6.132;2024-03-23T04:08:46;48.80;;;19.17;;
48578;SDS011;34357;51.948;6.132;2024-03-23T04:11:12;52.20;;;18.50;;
48578;SDS011;34357;51.948;6.132;2024-03-23T04:13:37;49.97;;;19.52;;
48578;SDS011;34357;51.948;6.132;2024-03-23T04:16:03;45.78;;;17.67;;
48578;SDS011;34357;51.948;6.132;2024-03-23T04:18:29;46.90;;;18.25;;
48578;SDS011;34357;51.948;6.132;2024-03-23T04:20:55;49.70;;;17.92;;
48578;SDS011;34357;51.948;6.132;2024-03-23T04:23:20;47.95;;;18.73;;
48578;SDS011;34357;51.948;6.132;2024-03-23T04:25:46;43.00;;;18.52;;
48578;SDS011;34357;51.948;6.132;2024-03-23T04:28:12;47.38;;;19.00;;
48578;SDS011;34357;51.948;6.132;2024-03-23T04:30:37;50.83;;;21.02;;
48578;SDS011;34357;51.948;6.132;2024-03-23T04:33:03;51.05;;;19.67;;
48578;SDS011;34357;51.948;6.132;2024-03-23T04:35:30;52.47;;;19.25;;
48578;SDS011;34357;51.948;6.132;2024-03-23T04:37:56;49.08;;;19.00;;
48578;SDS011;34357;51.948;6.132;2024-03-23T04:40:23;51.20;;;19.48;;
48578;SDS011;34357;51.948;6.132;2024-03-23T04:42:50;46.55;;;19.27;;
48578;SDS011;34357;51.948;6.132;2024-03-23T04:45:15;42.72;;;17.67;;
48578;SDS011;34357;51.948;6.132;2024-03-23T04:47:41;52.15;;;19.80;;
48578;SDS011;34357;51.948;6.132;2024-03-23T04:50:07;47.78;;;19.10;;
48578;SDS011;34357;51.948;6.132;2024-03-23T04:52:33;41.85;;;19.20;;
48578;SDS011;34357;51.948;6.132;2024-03-23T04:54:59;44.42;;;18.08;;
48578;SDS011;34357;51.948;6.132;2024-03-23T04:57:24;45.75;;;17.77;;
48578;SDS011;34357;51.948;6.132;2024-03-23T04:59:50;48.08;;;18.58;;
48578;SDS011;34357;51.948;6.132;2024-03-23T05:02:16;44.38;;;17.27;;
48578;SDS011;34357;51.948;6.132;2024-03-23T05:04:41;51.58;;;17.40;;
48578;SDS011;34357;51.948;6.132;2024-03-23T05:07:07;48.22;;;17.25;;
48578;SDS011;34357;51.948;6.132;2024-03-23T05:09:33;40.47;;;17.90;;
48578;SDS011;34357;51.948;6.132;2024-03-23T05:11:59;44.90;;;16.75;;
48578;SDS011;34357;51.948;6.132;2024-03-23T05:14:27;46.58;;;16.00;;
48578;SDS011;34357;51.948;6.132;2024-03-23T05:16:53;46.05;;;15.50;;
48578;SDS011;34357;51.948;6.132;2024-03-23T05:19:20;44.08;;;14.77;;
48578;SDS011;34357;51.948;6.132;2024-03-23T05:21:46;46.88;;;14.43;;
48578;SDS011;34357;51.948;6.132;2024-03-23T05:24:12;38.42;;;14.88;;
48578;SDS011;34357;51.948;6.132;2024-03-23T05:26:38;47.05;;;15.93;;
48578;SDS011;34357;51.948;6.132;2024-03-23T05:29:03;36.05;;;13.13;;
48578;SDS011;34357;51.948;6.132;2024-03-23T05:31:30;36.22;;;13.50;;
48578;SDS011;34357;51.948;6.132;2024-03-23T05:33:56;40.95;;;13.85;;
48578;SDS011;34357;51.948;6.132;2024-03-23T05:36:22;35.50;;;10.90;;
48578;SDS011;34357;51.948;6.132;2024-03-23T05:38:49;29.52;;;10.27;;
48578;SDS011;34357;51.948;6.132;2024-03-23T05:41:15;36.65;;;10.52;;
48578;SDS011;34357;51.948;6.132;2024-03-23T05:43:40;32.47;;;9.63;;
48578;SDS011;34357;51.948;6.132;2024-03-23T05:46:06;36.08;;;10.20;;
48578;SDS011;34357;51.948;6.132;2024-03-23T05:48:35;38.53;;;9.10;;
48578;SDS011;34357;51.948;6.132;2024-03-23T05:51:01;32.58;;;9.18;;
48578;SDS011;34357;51.948;6.132;2024-03-23T05:53:27;28.85;;;8.25;;
48578;SDS011;34357;51.948;6.132;2024-03-23T05:56:02;31.83;;;8.95;;
48578;SDS011;34357;51.948;6.132;2024-03-23T05:58:32;26.98;;;7.97;;
48578;SDS011;34357;51.948;6.132;2024-03-23T06:00:58;32.42;;;7.85;;
48578;SDS011;34357;51.948;6.132;2024-03-23T06:03:28;26.33;;;8.15;;
48578;SDS011;34357;51.948;6.132;2024-03-23T06:05:55;37.13;;;8.02;;
48578;SDS011;34357;51.948;6.132;2024-03-23T06:08:21;26.13;;;6.95;;
48578;SDS011;34357;51.948;6.132;2024-03-23T06:10:47;24.30;;;7.53;;
48578;SDS011;34357;51.948;6.132;2024-03-23T06:13:13;27.27;;;6.63;;
48578;SDS011;34357;51.948;6.132;2024-03-23T06:15:39;27.05;;;7.00;;
48578;SDS011;34357;51.948;6.132;2024-03-23T06:18:05;31.85;;;6.22;;
48578;SDS011;34357;51.948;6.132;2024-03-23T06:20:32;23.25;;;6.47;;
48578;SDS011;34357;51.948;6.132;2024-03-23T06:22:59;24.58;;;6.30;;
48578;SDS011;34357;51.948;6.132;2024-03-23T06:25:28;20.50;;;6.22;;
48578;SDS011;34357;51.948;6.132;2024-03-23T06:27:54;32.97;;;7.28;;
48578;SDS011;34357;51.948;6.132;2024-03-23T06:30:20;19.65;;;5.68;;
48578;SDS011;34357;51.948;6.132;2024-03-23T06:32:46;19.63;;;5.20;;
48578;SDS011;34357;51.948;6.132;2024-03-23T06:35:12;18.92;;;5.05;;
48578;SDS011;34357;51.948;6.132;2024-03-23T06:37:37;27.63;;;4.78;;
48578;SDS011;34357;51.948;6.132;2024-03-23T06:40:04;21.73;;;4.72;;
48578;SDS011;34357;51.948;6.132;2024-03-23T06:42:33;19.35;;;4.68;;
48578;SDS011;34357;51.948;6.132;2024-03-23T06:44:59;21.27;;;4.65;;
48578;SDS011;34357;51.948;6.132;2024-03-23T06:47:25;21.13;;;4.60;;
48578;SDS011;34357;51.948;6.132;2024-03-23T06:49:50;21.55;;;4.53;;
48578;SDS011;34357;51.948;6.132;2024-03-23T06:52:16;17.52;;;3.97;;
48578;SDS011;34357;51.948;6.132;2024-03-23T06:54:42;24.75;;;4.50;;
48578;SDS011;34357;51.948;6.132;2024-03-23T06:57:10;22.40;;;4.95;;
48578;SDS011;34357;51.948;6.132;2024-03-23T06:59:38;19.38;;;3.83;;
48578;SDS011;34357;51.948;6.132;2024-03-23T07:02:05;17.85;;;4.43;;
48578;SDS011;34357;51.948;6.132;2024-03-23T07:04:33;18.98;;;4.50;;
48578;SDS011;34357;51.948;6.132;2024-03-23T07:06:59;27.50;;;5.80;;
48578;SDS011;34357;51.948;6.132;2024-03-23T07:09:26;22.23;;;5.05;;
48578;SDS011;34357;51.948;6.132;2024-03-23T07:11:58;19.65;;;4.40;;
48578;SDS011;34357;51.948;6.132;2024-03-23T07:14:24;18.25;;;4.05;;
48578;SDS011;34357;51.948;6.132;2024-03-23T07:16:50;15.82;;;3.85;;
48578;SDS011;34357;51.948;6.132;2024-03-23T07:19:16;18.08;;;4.03;;
48578;SDS011;34357;51.948;6.132;2024-03-23T07:21:43;21.95;;;4.55;;
48578;SDS011;34357;51.948;6.132;2024-03-23T07:24:09;22.98;;;4.20;;
48578;SDS011;34357;51.948;6.132;2024-03-23T07:26:35;16.60;;;3.97;;
48578;SDS011;34357;51.948;6.132;2024-03-23T07:29:02;20.40;;;4.47;;
48578;SDS011;34357;51.948;6.132;2024-03-23T07:31:28;19.17;;;4.30;;
48578;SDS011;34357;51.948;6.132;2024-03-23T07:33:54;24.17;;;3.80;;
48578;SDS011;34357;51.948;6.132;2024-03-23T07:36:20;18.23;;;4.78;;
48578;SDS011;34357;51.948;6.132;2024-03-23T07:38:45;16.33;;;3.67;;
48578;SDS011;34357;51.948;6.132;2024-03-23T07:41:15;14.90;;;3.83;;
48578;SDS011;34357;51.948;6.132;2024-03-23T07:43:45;17.85;;;4.03;;
48578;SDS011;34357;51.948;6.132;2024-03-23T07:46:11;20.25;;;4.60;;
48578;SDS011;34357;51.948;6.132;2024-03-23T07:48:39;21.77;;;4.25;;
48578;SDS011;34357;51.948;6.132;2024-03-23T07:51:13;18.70;;;4.22;;
48578;SDS011;34357;51.948;6.132;2024-03-23T07:53:42;13.43;;;4.07;;
48578;SDS011;34357;51.948;6.132;2024-03-23T07:56:11;18.88;;;4.53;;
48578;SDS011;34357;51.948;6.132;2024-03-23T07:58:37;16.40;;;4.38;;
48578;SDS011;34357;51.948;6.132;2024-03-23T08:01:10;18.75;;;5.05;;
48578;SDS011;34357;51.948;6.132;2024-03-23T08:03:38;13.73;;;3.55;;
48578;SDS011;34357;51.948;6.132;2024-03-23T08:06:11;22.08;;;4.20;;
48578;SDS011;34357;51.948;6.132;2024-03-23T08:08:38;16.20;;;3.88;;
48578;SDS011;34357;51.948;6.132;2024-03-23T08:11:05;18.88;;;4.47;;
48578;SDS011;34357;51.948;6.132;2024-03-23T08:13:31;11.45;;;4.07;;
48578;SDS011;34357;51.948;6.132;2024-03-23T08:15:57;14.82;;;3.53;;
48578;SDS011;34357;51.948;6.132;2024-03-23T08:18:23;18.70;;;4.10;;
48578;SDS011;34357;51.948;6.132;2024-03-23T08:20:59;16.60;;;3.28;;
48578;SDS011;34357;51.948;6.132;2024-03-23T08:23:29;12.45;;;3.25;;
48578;SDS011;34357;51.948;6.132;2024-03-23T08:26:02;13.05;;;2.47;;
48578;SDS011;34357;51.948;6.132;2024-03-23T08:28:30;26.25;;;3.38;;
48578;SDS011;34357;51.948;6.132;2024-03-23T08:30:56;13.45;;;2.63;;
48578;SDS011;34357;51.948;6.132;2024-03-23T08:33:24;11.55;;;2.80;;
48578;SDS011;34357;51.948;6.132;2024-03-23T08:35:57;14.50;;;3.42;;
48578;SDS011;34357;51.948;6.132;2024-03-23T08:38:24;13.98;;;3.30;;
48578;SDS011;34357;51.948;6.132;2024-03-23T08:40:57;16.52;;;3.88;;
48578;SDS011;34357;51.948;6.132;2024-03-23T08:43:23;11.20;;;2.60;;
48578;SDS011;34357;51.948;6.132;2024-03-23T08:45:49;12.27;;;2.95;;
48578;SDS011;34357;51.948;6.132;2024-03-23T08:48:15;21.52;;;4.05;;
48578;SDS011;34357;51.948;6.132;2024-03-23T08:50:41;13.07;;;2.97;;
48578;SDS011;34357;51.948;6.132;2024-03-23T08:53:06;13.13;;;2.67;;
48578;SDS011;34357;51.948;6.132;2024-03-23T08:55:33;16.58;;;2.95;;
48578;SDS011;34357;51.948;6.132;2024-03-23T08:57:58;20.52;;;3.47;;
48578;SDS011;34357;51.948;6.132;2024-03-23T09:00:25;13.48;;;2.85;;
48578;SDS011;34357;51.948;6.132;2024-03-23T09:02:51;16.98;;;2.85;;
48578;SDS011;34357;51.948;6.132;2024-03-23T09:05:18;15.25;;;2.53;;
48578;SDS011;34357;51.948;6.132;2024-03-23T09:07:43;12.82;;;3.13;;
48578;SDS011;34357;51.948;6.132;2024-03-23T09:10:09;13.90;;;2.60;;
48578;SDS011;34357;51.948;6.132;2024-03-23T09:12:34;15.18;;;2.40;;
48578;SDS011;34357;51.948;6.132;2024-03-23T09:15:00;13.88;;;2.25;;
48578;SDS011;34357;51.948;6.132;2024-03-23T09:17:26;14.60;;;2.15;;
48578;SDS011;34357;51.948;6.132;2024-03-23T09:19:51;9.20;;;1.52;;
48578;SDS011;34357;51.948;6.132;2024-03-23T09:22:17;19.15;;;2.83;;
48578;SDS011;34357;51.948;6.132;2024-03-23T09:24:43;10.57;;;1.92;;
48578;SDS011;34357;51.948;6.132;2024-03-23T09:27:08;11.60;;;1.90;;
48578;SDS011;34357;51.948;6.132;2024-03-23T09:29:34;8.10;;;1.65;;
48578;SDS011;34357;51.948;6.132;2024-03-23T09:32:00;15.90;;;2.22;;
48578;SDS011;34357;51.948;6.132;2024-03-23T09:34:25;11.57;;;2.50;;
48578;SDS011;34357;51.948;6.132;2024-03-23T09:36:51;12.10;;;2.08;;
48578;SDS011;34357;51.948;6.132;2024-03-23T09:39:17;15.32;;;2.65;;
48578;SDS011;34357;51.948;6.132;2024-03-23T09:41:44;5.95;;;1.00;;
48578;SDS011;34357;51.948;6.132;2024-03-23T09:44:10;12.00;;;2.05;;
48578;SDS011;34357;51.948;6.132;2024-03-23T09:46:36;10.50;;;1.92;;
48578;SDS011;34357;51.948;6.132;2024-03-23T09:49:04;9.40;;;1.85;;
48578;SDS011;34357;51.948;6.132;2024-03-23T09:51:35;11.65;;;2.20;;
48578;SDS011;34357;51.948;6.132;2024-03-23T09:54:02;13.27;;;1.80;;
48578;SDS011;34357;51.948;6.132;2024-03-23T09:56:28;6.03;;;1.38;;
48578;SDS011;34357;51.948;6.132;2024-03-23T09:59:00;5.25;;;1.48;;
48578;SDS011;34357;51.948;6.132;2024-03-23T10:01:29;7.60;;;1.50;;
48578;SDS011;34357;51.948;6.132;2024-03-23T10:03:55;7.32;;;1.98;;
48578;SDS011;34357;51.948;6.132;2024-03-23T10:06:21;5.95;;;1.40;;
48578;SDS011;34357;51.948;6.132;2024-03-23T10:08:50;11.07;;;1.73;;
48578;SDS011;34357;51.948;6.132;2024-03-23T10:11:16;9.77;;;1.55;;
48578;SDS011;34357;51.948;6.132;2024-03-23T10:13:42;12.55;;;1.88;;
48578;SDS011;34357;51.948;6.132;2024-03-23T10:16:09;13.25;;;2.72;;
48578;SDS011;34357;51.948;6.132;2024-03-23T10:18:38;10.38;;;1.58;;
48578;SDS011;34357;51.948;6.132;2024-03-23T10:23:31;10.32;;;2.25;;
48578;SDS011;34357;51.948;6.132;2024-03-23T10:28:54;12.43;;;2.38;;
48578;SDS011;34357;51.948;6.132;2024-03-23T10:31:33;10.98;;;2.40;;
48578;SDS011;34357;51.948;6.132;2024-03-23T10:34:00;9.00;;;1.77;;
48578;SDS011;34357;51.948;6.132;2024-03-23T10:36:27;9.38;;;2.72;;
48578;SDS011;34357;51.948;6.132;2024-03-23T10:38:54;9.75;;;2.10;;
48578;SDS011;34357;51.948;6.132;2024-03-23T10:41:20;9.00;;;1.40;;
48578;SDS011;34357;51.948;6.132;2024-03-23T10:43:46;7.97;;;2.20;;
48578;SDS011;34357;51.948;6.132;2024-03-23T10:46:13;12.10;;;2.22;;
48578;SDS011;34357;51.948;6.132;2024-03-23T10:48:39;7.82;;;2.03;;
48578;SDS011;34357;51.948;6.132;2024-03-23T10:51:08;5.82;;;1.60;;
48578;SDS011;34357;51.948;6.132;2024-03-23T10:53:36;10.57;;;1.98;;
48578;SDS011;34357;51.948;6.132;2024-03-23T10:56:02;7.18;;;1.60;;
48578;SDS011;34357;51.948;6.132;2024-03-23T10:58:31;10.68;;;2.03;;
48578;SDS011;34357;51.948;6.132;2024-03-23T11:01:03;6.20;;;1.73;;
48578;SDS011;34357;51.948;6.132;2024-03-23T11:03:36;8.70;;;1.85;;
48578;SDS011;34357;51.948;6.132;2024-03-23T11:06:06;12.68;;;3.67;;
48578;SDS011;34357;51.948;6.132;2024-03-23T11:08:36;7.85;;;2.42;;
48578;SDS011;34357;51.948;6.132;2024-03-23T11:11:19;12.98;;;2.83;;
48578;SDS011;34357;51.948;6.132;2024-03-23T11:13:48;11.45;;;2.15;;
48578;SDS011;34357;51.948;6.132;2024-03-23T11:16:15;14.65;;;2.20;;
48578;SDS011;34357;51.948;6.132;2024-03-23T11:18:42;10.07;;;2.30;;
48578;SDS011;34357;51.948;6.132;2024-03-23T11:21:10;9.07;;;2.15;;
48578;SDS011;34357;51.948;6.132;2024-03-23T11:23:36;9.82;;;2.30;;
48578;SDS011;34357;51.948;6.132;2024-03-23T11:26:01;7.88;;;1.95;;
48578;SDS011;34357;51.948;6.132;2024-03-23T11:28:30;8.88;;;2.05;;
48578;SDS011;34357;51.948;6.132;2024-03-23T11:30:55;3.55;;;1.30;;
48578;SDS011;34357;51.948;6.132;2024-03-23T11:33:21;8.23;;;2.03;;
48578;SDS011;34357;51.948;6.132;2024-03-23T11:35:47;9.07;;;2.05;;
48578;SDS011;34357;51.948;6.132;2024-03-23T11:38:16;13.18;;;1.75;;
48578;SDS011;34357;51.948;6.132;2024-03-23T11:40:44;13.38;;;1.80;;
48578;SDS011;34357;51.948;6.132;2024-03-23T11:43:15;11.05;;;1.75;;
48578;SDS011;34357;51.948;6.132;2024-03-23T11:45:43;9.97;;;1.50;;
48578;SDS011;34357;51.948;6.132;2024-03-23T11:48:15;7.70;;;1.80;;
48578;SDS011;34357;51.948;6.132;2024-03-23T11:50:45;5.35;;;1.63;;
48578;SDS011;34357;51.948;6.132;2024-03-23T11:53:21;7.93;;;1.52;;
48578;SDS011;34357;51.948;6.132;2024-03-23T11:55:51;10.38;;;1.50;;
48578;SDS011;34357;51.948;6.132;2024-03-23T11:58:21;11.77;;;1.40;;
48578;SDS011;34357;51.948;6.132;2024-03-23T12:03:23;4.25;;;0.85;;
48578;SDS011;34357;51.948;6.132;2024-03-23T12:05:54;10.95;;;1.95;;
48578;SDS011;34357;51.948;6.132;2024-03-23T12:08:25;5.82;;;1.38;;
48578;SDS011;34357;51.948;6.132;2024-03-23T12:13:30;9.05;;;1.50;;
48578;SDS011;34357;51.948;6.132;2024-03-23T12:15:58;6.55;;;1.30;;
48578;SDS011;34357;51.948;6.132;2024-03-23T12:18:34;5.97;;;1.67;;
48578;SDS011;34357;51.948;6.132;2024-03-23T12:21:00;5.35;;;1.38;;
48578;SDS011;34357;51.948;6.132;2024-03-23T12:23:26;10.63;;;1.85;;
48578;SDS011;34357;51.948;6.132;2024-03-23T12:25:51;9.75;;;2.03;;
48578;SDS011;34357;51.948;6.132;2024-03-23T12:28:17;8.88;;;1.45;;
48578;SDS011;34357;51.948;6.132;2024-03-23T12:30:43;9.00;;;1.98;;
48578;SDS011;34357;51.948;6.132;2024-03-23T12:33:09;10.55;;;1.77;;
48578;SDS011;34357;51.948;6.132;2024-03-23T12:35:35;6.95;;;1.17;;
48578;SDS011;34357;51.948;6.132;2024-03-23T12:38:00;9.75;;;1.38;;
48578;SDS011;34357;51.948;6.132;2024-03-23T12:40:26;6.47;;;1.40;;
48578;SDS011;34357;51.948;6.132;2024-03-23T12:42:53;7.28;;;1.80;;
48578;SDS011;34357;51.948;6.132;2024-03-23T12:45:19;6.28;;;1.85;;
48578;SDS011;34357;51.948;6.132;2024-03-23T12:47:45;9.82;;;1.98;;
48578;SDS011;34357;51.948;6.132;2024-03-23T12:50:11;13.25;;;2.05;;
48578;SDS011;34357;51.948;6.132;2024-03-23T12:52:37;11.20;;;1.67;;
48578;SDS011;34357;51.948;6.132;2024-03-23T12:55:02;12.95;;;2.00;;
48578;SDS011;34357;51.948;6.132;2024-03-23T12:57:30;10.30;;;2.00;;
48578;SDS011;34357;51.948;6.132;2024-03-23T12:59:57;10.00;;;1.38;;
48578;SDS011;34357;51.948;6.132;2024-03-23T13:02:23;8.43;;;1.35;;
48578;SDS011;34357;51.948;6.132;2024-03-23T13:04:49;9.20;;;1.88;;
48578;SDS011;34357;51.948;6.132;2024-03-23T13:07:17;10.60;;;1.70;;
48578;SDS011;34357;51.948;6.132;2024-03-23T13:09:43;10.80;;;1.75;;
48578;SDS011;34357;51.948;6.132;2024-03-23T13:12:10;12.05;;;2.20;;
48578;SDS011;34357;51.948;6.132;2024-03-23T13:14:39;14.20;;;2.38;;
48578;SDS011;34357;51.948;6.132;2024-03-23T13:17:06;19.65;;;1.70;;
48578;SDS011;34357;51.948;6.132;2024-03-23T13:19:33;5.95;;;1.38;;
48578;SDS011;34357;51.948;6.132;2024-03-23T13:22:02;12.35;;;1.92;;
48578;SDS011;34357;51.948;6.132;2024-03-23T13:24:28;8.35;;;1.58;;
48578;SDS011;34357;51.948;6.132;2024-03-23T13:26:55;9.15;;;1.65;;
48578;SDS011;34357;51.948;6.132;2024-03-23T13:29:21;9.70;;;1.60;;
48578;SDS011;34357;51.948;6.132;2024-03-23T13:31:48;5.78;;;1.30;;
48578;SDS011;34357;51.948;6.132;2024-03-23T13:34:14;8.43;;;1.80;;
48578;SDS011;34357;51.948;6.132;2024-03-23T13:36:41;10.43;;;1.85;;
48578;SDS011;34357;51.948;6.132;2024-03-23T13:39:10;7.38;;;1.50;;
48578;SDS011;34357;51.948;6.132;2024-03-23T13:41:43;6.20;;;1.42;;
48578;SDS011;34357;51.948;6.132;2024-03-23T13:44:13;6.78;;;1.65;;
48578;SDS011;34357;51.948;6.132;2024-03-23T13:46:39;9.73;;;1.95;;
48578;SDS011;34357;51.948;6.132;2024-03-23T13:49:08;10.68;;;1.90;;
48578;SDS011;34357;51.948;6.132;2024-03-23T13:51:51;11.38;;;1.40;;
48578;SDS011;34357;51.948;6.132;2024-03-23T13:54:17;8.63;;;1.65;;
48578;SDS011;34357;51.948;6.132;2024-03-23T13:56:43;9.00;;;1.80;;
48578;SDS011;34357;51.948;6.132;2024-03-23T13:59:09;8.20;;;1.67;;
48578;SDS011;34357;51.948;6.132;2024-03-23T14:01:35;10.15;;;2.10;;
48578;SDS011;34357;51.948;6.132;2024-03-23T14:04:01;14.00;;;2.13;;
48578;SDS011;34357;51.948;6.132;2024-03-23T14:06:26;12.25;;;1.55;;
48578;SDS011;34357;51.948;6.132;2024-03-23T14:08:52;9.90;;;1.67;;
48578;SDS011;34357;51.948;6.132;2024-03-23T14:11:18;7.20;;;1.60;;
48578;SDS011;34357;51.948;6.132;2024-03-23T14:13:44;9.98;;;1.52;;
48578;SDS011;34357;51.948;6.132;2024-03-23T14:16:10;12.23;;;1.65;;
48578;SDS011;34357;51.948;6.132;2024-03-23T14:18:35;4.05;;;1.05;;
48578;SDS011;34357;51.948;6.132;2024-03-23T14:21:01;7.03;;;1.35;;
48578;SDS011;34357;51.948;6.132;2024-03-23T14:23:28;11.55;;;1.80;;
48578;SDS011;34357;51.948;6.132;2024-03-23T14:25:57;6.25;;;1.30;;
48578;SDS011;34357;51.948;6.132;2024-03-23T14:28:23;12.05;;;2.08;;
48578;SDS011;34357;51.948;6.132;2024-03-23T14:30:49;5.22;;;1.17;;
48578;SDS011;34357;51.948;6.132;2024-03-23T14:33:16;5.57;;;1.63;;
48578;SDS011;34357;51.948;6.132;2024-03-23T14:35:43;6.15;;;0.98;;
48578;SDS011;34357;51.948;6.132;2024-03-23T14:38:09;9.95;;;1.65;;
48578;SDS011;34357;51.948;6.132;2024-03-23T14:40:34;7.85;;;1.50;;
48578;SDS011;34357;51.948;6.132;2024-03-23T14:43:00;12.65;;;1.77;;
48578;SDS011;34357;51.948;6.132;2024-03-23T14:45:27;8.13;;;1.98;;
48578;SDS011;34357;51.948;6.132;2024-03-23T14:47:53;8.18;;;1.88;;
48578;SDS011;34357;51.948;6.132;2024-03-23T14:50:19;8.52;;;2.10;;
48578;SDS011;34357;51.948;6.132;2024-03-23T14:52:45;13.70;;;2.30;;
48578;SDS011;34357;51.948;6.132;2024-03-23T14:55:11;10.93;;;2.38;;
48578;SDS011;34357;51.948;6.132;2024-03-23T14:57:37;10.90;;;1.85;;
48578;SDS011;34357;51.948;6.132;2024-03-23T15:00:06;12.30;;;2.45;;
48578;SDS011;34357;51.948;6.132;2024-03-23T15:02:33;7.00;;;2.15;;
48578;SDS011;34357;51.948;6.132;2024-03-23T15:04:59;8.05;;;2.08;;
48578;SDS011;34357;51.948;6.132;2024-03-23T15:07:26;9.45;;;1.83;;
48578;SDS011;34357;51.948;6.132;2024-03-23T15:09:52;7.07;;;1.30;;
48578;SDS011;34357;51.948;6.132;2024-03-23T15:12:18;9.00;;;1.73;;
48578;SDS011;34357;51.948;6.132;2024-03-23T15:14:44;11.45;;;1.65;;
48578;SDS011;34357;51.948;6.132;2024-03-23T15:17:11;12.68;;;1.63;;
48578;SDS011;34357;51.948;6.132;2024-03-23T15:19:37;10.10;;;1.38;;
48578;SDS011;34357;51.948;6.132;2024-03-23T15:22:02;8.52;;;1.65;;
48578;SDS011;34357;51.948;6.132;2024-03-23T15:24:28;6.88;;;1.58;;
48578;SDS011;34357;51.948;6.132;2024-03-23T15:26:54;7.75;;;1.60;;
48578;SDS011;34357;51.948;6.132;2024-03-23T15:29:22;8.90;;;1.70;;
48578;SDS011;34357;51.948;6.132;2024-03-23T15:31:48;12.98;;;2.42;;
48578;SDS011;34357;51.948;6.132;2024-03-23T15:34:19;8.45;;;1.50;;
48578;SDS011;34357;51.948;6.132;2024-03-23T15:36:47;9.10;;;1.92;;
48578;SDS011;34357;51.948;6.132;2024-03-23T15:39:14;8.20;;;1.58;;